sensor_id;sensor_type;location;lat;lon;timestamp;pressure;altitude;pressure_sealevel;temperature;humidity
81865;BME280;71313;43.514;1.500;2024-02-21T00:01:18;101060.88;;;9.64;60.70
81865;BME280;71313;43.514;1.500;2024-02-21T00:03:45;101065.06;;;9.70;60.94
81865;BME280;71313;43.514;1.500;2024-02-21T00:06:10;101066.06;;;9.67;60.67
81865;BME280;71313;43.514;1.500;2024-02-21T00:08:36;101063.63;;;9.63;61.05
81865;BME280;71313;43.514;1.500;2024-02-21T00:11:01;101071.00;;;9.58;61.70
81865;BME280;71313;43.514;1.500;2024-02-21T00:13:27;101068.44;;;9.55;61.73
81865;BME280;71313;43.514;1.500;2024-02-21T00:15:52;101065.91;;;9.52;61.21
81865;BME280;71313;43.514;1.500;2024-02-21T00:18:17;101067.78;;;9.50;61.53
81865;BME280;71313;43.514;1.500;2024-02-21T00:20:43;101072.34;;;9.48;61.87
81865;BME280;71313;43.514;1.500;2024-02-21T00:23:08;101067.66;;;9.53;61.52
81865;BME280;71313;43.514;1.500;2024-02-21T00:25:33;101065.09;;;9.50;61.70
81865;BME280;71313;43.514;1.500;2024-02-21T00:27:59;101058.22;;;9.44;61.75
81865;BME280;71313;43.514;1.500;2024-02-21T00:30:24;101063.66;;;9.42;61.83
81865;BME280;71313;43.514;1.500;2024-02-21T00:32:50;101056.63;;;9.40;61.93
81865;BME280;71313;43.514;1.500;2024-02-21T00:35:15;101052.34;;;9.36;62.19
81865;BME280;71313;43.514;1.500;2024-02-21T00:37:40;101045.03;;;9.39;62.00
81865;BME280;71313;43.514;1.500;2024-02-21T00:40:06;101042.00;;;9.47;62.16
81865;BME280;71313;43.514;1.500;2024-02-21T00:42:32;101032.81;;;9.53;61.35
81865;BME280;71313;43.514;1.500;2024-02-21T00:44:58;101019.00;;;9.62;61.39
81865;BME280;71313;43.514;1.500;2024-02-21T00:47:23;101011.75;;;9.64;60.99
81865;BME280;71313;43.514;1.500;2024-02-21T00:49:48;101009.44;;;9.56;61.81
81865;BME280;71313;43.514;1.500;2024-02-21T00:52:14;100995.97;;;9.58;61.26
81865;BME280;71313;43.514;1.500;2024-02-21T00:54:39;101000.59;;;9.54;61.86
81865;BME280;71313;43.514;1.500;2024-02-21T00:57:04;100983.81;;;9.51;61.82
81865;BME280;71313;43.514;1.500;2024-02-21T00:59:30;100979.81;;;9.59;61.68
81865;BME280;71313;43.514;1.500;2024-02-21T01:01:55;100974.47;;;9.59;61.52
81865;BME280;71313;43.514;1.500;2024-02-21T01:04:20;100972.38;;;9.66;61.16
81865;BME280;71313;43.514;1.500;2024-02-21T01:06:46;100975.19;;;9.63;61.83
81865;BME280;71313;43.514;1.500;2024-02-21T01:09:11;100969.19;;;9.58;61.89
81865;BME280;71313;43.514;1.500;2024-02-21T01:11:37;100965.06;;;9.51;62.59
81865;BME280;71313;43.514;1.500;2024-02-21T01:14:02;100953.81;;;9.61;61.72
81865;BME280;71313;43.514;1.500;2024-02-21T01:16:27;100938.19;;;9.71;61.40
81865;BME280;71313;43.514;1.500;2024-02-21T01:18:53;100935.69;;;9.85;61.12
81865;BME280;71313;43.514;1.500;2024-02-21T01:21:18;100932.50;;;9.96;61.25
81865;BME280;71313;43.514;1.500;2024-02-21T01:23:44;100931.88;;;10.08;60.79
81865;BME280;71313;43.514;1.500;2024-02-21T01:26:09;100926.06;;;10.17;60.38
81865;BME280;71313;43.514;1.500;2024-02-21T01:28:38;100929.25;;;10.25;59.97
81865;BME280;71313;43.514;1.500;2024-02-21T01:31:03;100918.13;;;10.33;59.60
81865;BME280;71313;43.514;1.500;2024-02-21T01:33:29;100916.00;;;10.39;59.60
81865;BME280;71313;43.514;1.500;2024-02-21T01:36:00;100907.75;;;10.43;59.26
81865;BME280;71313;43.514;1.500;2024-02-21T01:38:25;100897.66;;;10.48;59.39
81865;BME280;71313;43.514;1.500;2024-02-21T01:40:51;100892.84;;;10.54;59.23
81865;BME280;71313;43.514;1.500;2024-02-21T01:43:20;100888.31;;;10.39;59.77
81865;BME280;71313;43.514;1.500;2024-02-21T01:45:53;100896.28;;;10.23;60.31
81865;BME280;71313;43.514;1.500;2024-02-21T01:48:21;100893.16;;;10.14;60.81
81865;BME280;71313;43.514;1.500;2024-02-21T01:50:49;100889.38;;;10.18;60.60
81865;BME280;71313;43.514;1.500;2024-02-21T01:53:17;100880.19;;;10.23;60.30
81865;BME280;71313;43.514;1.500;2024-02-21T01:55:47;100882.63;;;10.28;59.77
81865;BME280;71313;43.514;1.500;2024-02-21T01:58:16;100878.38;;;10.24;59.97
81865;BME280;71313;43.514;1.500;2024-02-21T02:00:43;100887.66;;;10.17;59.64
81865;BME280;71313;43.514;1.500;2024-02-21T02:03:11;100881.66;;;10.12;60.28
81865;BME280;71313;43.514;1.500;2024-02-21T02:05:47;100880.38;;;10.19;59.99
81865;BME280;71313;43.514;1.500;2024-02-21T02:08:18;100873.28;;;10.18;59.86
81865;BME280;71313;43.514;1.500;2024-02-21T02:10:44;100864.47;;;10.16;59.46
81865;BME280;71313;43.514;1.500;2024-02-21T02:13:10;100869.38;;;10.25;58.78
81865;BME280;71313;43.514;1.500;2024-02-21T02:15:43;100865.75;;;10.26;58.33
81865;BME280;71313;43.514;1.500;2024-02-21T02:18:10;100862.56;;;10.18;59.13
81865;BME280;71313;43.514;1.500;2024-02-21T02:20:36;100863.81;;;9.93;60.34
81865;BME280;71313;43.514;1.500;2024-02-21T02:23:08;100862.69;;;9.80;60.50
81865;BME280;71313;43.514;1.500;2024-02-21T02:25:35;100851.19;;;9.78;59.97
81865;BME280;71313;43.514;1.500;2024-02-21T02:28:02;100858.13;;;9.82;60.56
81865;BME280;71313;43.514;1.500;2024-02-21T02:30:28;100845.03;;;9.76;60.16
81865;BME280;71313;43.514;1.500;2024-02-21T02:32:53;100839.38;;;9.82;59.92
81865;BME280;71313;43.514;1.500;2024-02-21T02:35:19;100844.41;;;9.88;60.47
81865;BME280;71313;43.514;1.500;2024-02-21T02:37:48;100847.56;;;9.96;59.38
81865;BME280;71313;43.514;1.500;2024-02-21T02:40:14;100851.19;;;9.95;59.73
81865;BME280;71313;43.514;1.500;2024-02-21T02:42:40;100849.13;;;9.83;59.40
81865;BME280;71313;43.514;1.500;2024-02-21T02:45:05;100835.75;;;9.83;60.05
81865;BME280;71313;43.514;1.500;2024-02-21T02:47:31;100833.53;;;9.91;59.17
81865;BME280;71313;43.514;1.500;2024-02-21T02:49:56;100840.31;;;9.81;59.93
81865;BME280;71313;43.514;1.500;2024-02-21T02:52:22;100832.47;;;9.59;60.89
81865;BME280;71313;43.514;1.500;2024-02-21T02:54:47;100836.72;;;9.27;61.53
81865;BME280;71313;43.514;1.500;2024-02-21T02:57:17;100816.38;;;9.23;61.38
81865;BME280;71313;43.514;1.500;2024-02-21T02:59:47;100809.94;;;9.27;61.15
81865;BME280;71313;43.514;1.500;2024-02-21T03:02:13;100811.69;;;9.28;60.95
81865;BME280;71313;43.514;1.500;2024-02-21T03:04:39;100804.59;;;9.27;60.98
81865;BME280;71313;43.514;1.500;2024-02-21T03:07:05;100790.84;;;9.16;61.40
81865;BME280;71313;43.514;1.500;2024-02-21T03:09:30;100793.19;;;9.05;61.42
81865;BME280;71313;43.514;1.500;2024-02-21T03:11:55;100796.78;;;9.04;60.94
81865;BME280;71313;43.514;1.500;2024-02-21T03:14:27;100787.69;;;8.89;62.00
81865;BME280;71313;43.514;1.500;2024-02-21T03:16:53;100787.09;;;8.83;62.09
81865;BME280;71313;43.514;1.500;2024-02-21T03:19:18;100778.44;;;8.77;62.21
81865;BME280;71313;43.514;1.500;2024-02-21T03:21:43;100773.22;;;8.74;62.14
81865;BME280;71313;43.514;1.500;2024-02-21T03:24:09;100774.81;;;8.78;61.85
81865;BME280;71313;43.514;1.500;2024-02-21T03:26:34;100778.28;;;8.81;61.86
81865;BME280;71313;43.514;1.500;2024-02-21T03:28:59;100779.88;;;8.85;61.55
81865;BME280;71313;43.514;1.500;2024-02-21T03:31:25;100785.38;;;8.82;61.52
81865;BME280;71313;43.514;1.500;2024-02-21T03:33:50;100787.59;;;8.53;62.60
81865;BME280;71313;43.514;1.500;2024-02-21T03:36:16;100792.41;;;8.45;62.50
81865;BME280;71313;43.514;1.500;2024-02-21T03:38:41;100791.91;;;8.37;62.81
81865;BME280;71313;43.514;1.500;2024-02-21T03:41:07;100794.94;;;8.28;62.69
81865;BME280;71313;43.514;1.500;2024-02-21T03:43:32;100798.97;;;8.18;63.29
81865;BME280;71313;43.514;1.500;2024-02-21T03:45:58;100802.25;;;8.04;63.58
81865;BME280;71313;43.514;1.500;2024-02-21T03:48:23;100799.91;;;7.96;63.61
81865;BME280;71313;43.514;1.500;2024-02-21T03:50:48;100805.38;;;7.93;63.15
81865;BME280;71313;43.514;1.500;2024-02-21T03:53:14;100808.75;;;7.78;63.91
81865;BME280;71313;43.514;1.500;2024-02-21T03:55:39;100800.38;;;7.65;64.69
81865;BME280;71313;43.514;1.500;2024-02-21T03:58:05;100796.97;;;7.62;65.35
81865;BME280;71313;43.514;1.500;2024-02-21T04:00:30;100802.19;;;7.65;65.24
81865;BME280;71313;43.514;1.500;2024-02-21T04:02:55;100801.25;;;7.66;64.94
81865;BME280;71313;43.514;1.500;2024-02-21T04:05:21;100810.19;;;7.65;64.99
81865;BME280;71313;43.514;1.500;2024-02-21T04:07:46;100806.41;;;7.70;64.71
81865;BME280;71313;43.514;1.500;2024-02-21T04:10:12;100798.44;;;7.69;65.03
81865;BME280;71313;43.514;1.500;2024-02-21T04:12:37;100799.38;;;7.68;64.59
81865;BME280;71313;43.514;1.500;2024-02-21T04:15:04;100788.84;;;7.65;64.74
81865;BME280;71313;43.514;1.500;2024-02-21T04:17:29;100783.56;;;7.63;64.50
81865;BME280;71313;43.514;1.500;2024-02-21T04:20:03;100784.50;;;7.62;64.55
81865;BME280;71313;43.514;1.500;2024-02-21T04:22:34;100783.75;;;7.59;63.90
81865;BME280;71313;43.514;1.500;2024-02-21T04:25:00;100788.69;;;7.68;64.16
81865;BME280;71313;43.514;1.500;2024-02-21T04:27:28;100784.03;;;7.73;63.66
81865;BME280;71313;43.514;1.500;2024-02-21T04:29:55;100781.09;;;7.79;63.74
81865;BME280;71313;43.514;1.500;2024-02-21T04:32:20;100782.41;;;7.89;62.87
81865;BME280;71313;43.514;1.500;2024-02-21T04:34:45;100784.28;;;7.87;63.06
81865;BME280;71313;43.514;1.500;2024-02-21T04:37:11;100774.03;;;7.78;63.34
81865;BME280;71313;43.514;1.500;2024-02-21T04:39:36;100774.41;;;7.69;63.84
81865;BME280;71313;43.514;1.500;2024-02-21T04:42:02;100769.19;;;7.66;64.00
81865;BME280;71313;43.514;1.500;2024-02-21T04:44:27;100766.13;;;7.55;63.77
81865;BME280;71313;43.514;1.500;2024-02-21T04:46:53;100766.63;;;7.42;64.41
81865;BME280;71313;43.514;1.500;2024-02-21T04:49:18;100763.28;;;7.37;64.36
81865;BME280;71313;43.514;1.500;2024-02-21T04:51:44;100770.63;;;7.32;64.49
81865;BME280;71313;43.514;1.500;2024-02-21T04:54:09;100767.13;;;7.30;64.26
81865;BME280;71313;43.514;1.500;2024-02-21T04:56:34;100766.41;;;7.27;64.22
81865;BME280;71313;43.514;1.500;2024-02-21T04:59:00;100765.34;;;7.31;64.04
81865;BME280;71313;43.514;1.500;2024-02-21T05:01:25;100761.00;;;7.28;64.04
81865;BME280;71313;43.514;1.500;2024-02-21T05:03:51;100770.75;;;7.29;64.46
81865;BME280;71313;43.514;1.500;2024-02-21T05:06:16;100760.06;;;7.29;64.35
81865;BME280;71313;43.514;1.500;2024-02-21T05:08:42;100766.34;;;7.28;64.32
81865;BME280;71313;43.514;1.500;2024-02-21T05:11:07;100752.78;;;7.33;63.88
81865;BME280;71313;43.514;1.500;2024-02-21T05:13:32;100759.69;;;7.38;63.73
81865;BME280;71313;43.514;1.500;2024-02-21T05:15:58;100752.47;;;7.40;63.30
81865;BME280;71313;43.514;1.500;2024-02-21T05:18:27;100763.16;;;7.40;63.33
81865;BME280;71313;43.514;1.500;2024-02-21T05:20:52;100763.66;;;7.28;63.09
81865;BME280;71313;43.514;1.500;2024-02-21T05:23:17;100763.78;;;7.25;63.84
81865;BME280;71313;43.514;1.500;2024-02-21T05:25:43;100761.50;;;7.16;63.80
81865;BME280;71313;43.514;1.500;2024-02-21T05:28:08;100754.84;;;7.04;63.85
81865;BME280;71313;43.514;1.500;2024-02-21T05:30:34;100758.81;;;6.94;63.97
81865;BME280;71313;43.514;1.500;2024-02-21T05:32:59;100767.56;;;6.98;63.81
81865;BME280;71313;43.514;1.500;2024-02-21T05:35:28;100770.00;;;7.04;63.55
81865;BME280;71313;43.514;1.500;2024-02-21T05:37:54;100780.91;;;6.98;64.14
81865;BME280;71313;43.514;1.500;2024-02-21T05:40:19;100774.31;;;6.84;64.31
81865;BME280;71313;43.514;1.500;2024-02-21T05:42:45;100761.56;;;6.93;64.13
81865;BME280;71313;43.514;1.500;2024-02-21T05:45:10;100763.03;;;7.00;64.01
81865;BME280;71313;43.514;1.500;2024-02-21T05:47:35;100761.75;;;7.10;63.72
81865;BME280;71313;43.514;1.500;2024-02-21T05:50:01;100762.31;;;7.18;63.77
81865;BME280;71313;43.514;1.500;2024-02-21T05:52:26;100751.38;;;7.24;63.25
81865;BME280;71313;43.514;1.500;2024-02-21T05:54:52;100756.22;;;7.36;62.91
81865;BME280;71313;43.514;1.500;2024-02-21T05:57:18;100751.41;;;7.44;62.52
81865;BME280;71313;43.514;1.500;2024-02-21T05:59:43;100739.69;;;7.48;62.72
81865;BME280;71313;43.514;1.500;2024-02-21T06:02:09;100748.41;;;7.52;62.77
81865;BME280;71313;43.514;1.500;2024-02-21T06:04:34;100738.22;;;7.62;62.34
81865;BME280;71313;43.514;1.500;2024-02-21T06:07:01;100737.03;;;7.69;61.82
81865;BME280;71313;43.514;1.500;2024-02-21T06:09:26;100738.09;;;7.65;61.66
81865;BME280;71313;43.514;1.500;2024-02-21T06:11:52;100747.91;;;7.64;61.74
81865;BME280;71313;43.514;1.500;2024-02-21T06:14:18;100735.94;;;7.53;62.02
81865;BME280;71313;43.514;1.500;2024-02-21T06:16:44;100734.59;;;7.42;62.08
81865;BME280;71313;43.514;1.500;2024-02-21T06:19:09;100739.81;;;7.45;61.97
81865;BME280;71313;43.514;1.500;2024-02-21T06:21:35;100741.81;;;7.40;62.33
81865;BME280;71313;43.514;1.500;2024-02-21T06:24:00;100740.88;;;7.41;62.01
81865;BME280;71313;43.514;1.500;2024-02-21T06:26:25;100733.78;;;7.40;63.07
81865;BME280;71313;43.514;1.500;2024-02-21T06:28:51;100734.84;;;7.36;62.51
81865;BME280;71313;43.514;1.500;2024-02-21T06:31:16;100733.72;;;7.42;61.71
81865;BME280;71313;43.514;1.500;2024-02-21T06:33:42;100729.06;;;7.47;62.06
81865;BME280;71313;43.514;1.500;2024-02-21T06:36:08;100724.03;;;7.39;62.25
81865;BME280;71313;43.514;1.500;2024-02-21T06:38:33;100720.44;;;7.40;61.89
81865;BME280;71313;43.514;1.500;2024-02-21T06:40:59;100716.66;;;7.46;61.74
81865;BME280;71313;43.514;1.500;2024-02-21T06:43:25;100721.41;;;7.60;61.20
81865;BME280;71313;43.514;1.500;2024-02-21T06:45:51;100719.25;;;7.68;61.34
81865;BME280;71313;43.514;1.500;2024-02-21T06:48:17;100724.31;;;7.54;61.59
81865;BME280;71313;43.514;1.500;2024-02-21T06:50:43;100732.59;;;7.47;61.73
81865;BME280;71313;43.514;1.500;2024-02-21T06:53:09;100723.91;;;7.42;62.32
81865;BME280;71313;43.514;1.500;2024-02-21T06:55:35;100741.41;;;7.49;62.78
81865;BME280;71313;43.514;1.500;2024-02-21T06:58:00;100743.09;;;7.52;62.47
81865;BME280;71313;43.514;1.500;2024-02-21T07:00:26;100743.22;;;7.49;62.64
81865;BME280;71313;43.514;1.500;2024-02-21T07:02:51;100750.97;;;7.55;62.58
81865;BME280;71313;43.514;1.500;2024-02-21T07:05:17;100747.03;;;7.64;62.23
81865;BME280;71313;43.514;1.500;2024-02-21T07:07:43;100751.19;;;7.71;62.15
81865;BME280;71313;43.514;1.500;2024-02-21T07:10:08;100753.03;;;7.69;62.23
81865;BME280;71313;43.514;1.500;2024-02-21T07:12:34;100752.78;;;7.75;62.64
81865;BME280;71313;43.514;1.500;2024-02-21T07:15:00;100740.72;;;7.85;62.11
81865;BME280;71313;43.514;1.500;2024-02-21T07:17:26;100741.31;;;7.92;62.25
81865;BME280;71313;43.514;1.500;2024-02-21T07:19:51;100749.00;;;7.99;62.49
81865;BME280;71313;43.514;1.500;2024-02-21T07:22:17;100738.84;;;8.07;61.70
81865;BME280;71313;43.514;1.500;2024-02-21T07:24:42;100744.31;;;8.04;62.28
81865;BME280;71313;43.514;1.500;2024-02-21T07:27:07;100737.84;;;8.10;61.96
81865;BME280;71313;43.514;1.500;2024-02-21T07:29:33;100738.44;;;8.17;62.24
81865;BME280;71313;43.514;1.500;2024-02-21T07:31:58;100740.22;;;8.16;61.84
81865;BME280;71313;43.514;1.500;2024-02-21T07:34:23;100748.72;;;8.26;61.96
81865;BME280;71313;43.514;1.500;2024-02-21T07:36:49;100741.47;;;8.28;61.91
81865;BME280;71313;43.514;1.500;2024-02-21T07:39:14;100741.47;;;8.28;61.87
81865;BME280;71313;43.514;1.500;2024-02-21T07:41:39;100750.44;;;8.27;62.01
81865;BME280;71313;43.514;1.500;2024-02-21T07:44:06;100746.69;;;8.31;62.43
81865;BME280;71313;43.514;1.500;2024-02-21T07:46:31;100749.50;;;8.28;62.71
81865;BME280;71313;43.514;1.500;2024-02-21T07:48:57;100737.22;;;8.24;62.74
81865;BME280;71313;43.514;1.500;2024-02-21T07:51:22;100736.00;;;8.31;62.81
81865;BME280;71313;43.514;1.500;2024-02-21T07:53:47;100738.59;;;8.32;62.78
81865;BME280;71313;43.514;1.500;2024-02-21T07:56:15;100741.03;;;8.38;63.10
81865;BME280;71313;43.514;1.500;2024-02-21T07:58:43;100735.59;;;8.40;62.78
81865;BME280;71313;43.514;1.500;2024-02-21T08:01:10;100737.19;;;8.44;63.27
81865;BME280;71313;43.514;1.500;2024-02-21T08:03:36;100743.00;;;8.54;62.60
81865;BME280;71313;43.514;1.500;2024-02-21T08:06:02;100731.00;;;8.62;63.67
81865;BME280;71313;43.514;1.500;2024-02-21T08:08:27;100733.38;;;8.68;63.27
81865;BME280;71313;43.514;1.500;2024-02-21T08:10:53;100737.66;;;8.72;63.39
81865;BME280;71313;43.514;1.500;2024-02-21T08:13:18;100728.38;;;8.79;63.31
81865;BME280;71313;43.514;1.500;2024-02-21T08:15:43;100722.53;;;8.90;63.24
81865;BME280;71313;43.514;1.500;2024-02-21T08:18:09;100723.88;;;8.99;63.25
81865;BME280;71313;43.514;1.500;2024-02-21T08:20:35;100712.88;;;9.05;63.05
81865;BME280;71313;43.514;1.500;2024-02-21T08:23:00;100718.06;;;9.08;62.73
81865;BME280;71313;43.514;1.500;2024-02-21T08:25:26;100703.75;;;9.09;63.45
81865;BME280;71313;43.514;1.500;2024-02-21T08:27:51;100703.75;;;9.09;63.04
81865;BME280;71313;43.514;1.500;2024-02-21T08:30:17;100699.81;;;9.16;63.35
81865;BME280;71313;43.514;1.500;2024-02-21T08:32:42;100689.97;;;9.17;63.28
81865;BME280;71313;43.514;1.500;2024-02-21T08:35:08;100683.31;;;9.25;63.19
81865;BME280;71313;43.514;1.500;2024-02-21T08:37:33;100690.06;;;9.32;62.90
81865;BME280;71313;43.514;1.500;2024-02-21T08:39:59;100693.53;;;9.34;63.12
81865;BME280;71313;43.514;1.500;2024-02-21T08:42:29;100698.91;;;9.34;62.49
81865;BME280;71313;43.514;1.500;2024-02-21T08:44:55;100704.19;;;9.36;63.01
81865;BME280;71313;43.514;1.500;2024-02-21T08:47:20;100691.50;;;9.39;62.91
81865;BME280;71313;43.514;1.500;2024-02-21T08:49:45;100697.56;;;9.43;63.12
81865;BME280;71313;43.514;1.500;2024-02-21T08:52:11;100699.69;;;9.54;63.15
81865;BME280;71313;43.514;1.500;2024-02-21T08:54:36;100708.03;;;9.65;63.12
81865;BME280;71313;43.514;1.500;2024-02-21T08:57:01;100703.94;;;9.75;62.60
81865;BME280;71313;43.514;1.500;2024-02-21T08:59:28;100703.63;;;9.81;63.35
81865;BME280;71313;43.514;1.500;2024-02-21T09:01:54;100699.50;;;9.91;62.96
81865;BME280;71313;43.514;1.500;2024-02-21T09:04:19;100696.19;;;10.03;62.88
81865;BME280;71313;43.514;1.500;2024-02-21T09:06:45;100696.31;;;10.18;63.00
81865;BME280;71313;43.514;1.500;2024-02-21T09:09:11;100692.03;;;10.31;63.08
81865;BME280;71313;43.514;1.500;2024-02-21T09:11:37;100696.69;;;10.43;62.77
81865;BME280;71313;43.514;1.500;2024-02-21T09:14:03;100699.31;;;10.60;63.19
81865;BME280;71313;43.514;1.500;2024-02-21T09:16:31;100701.91;;;10.78;62.92
81865;BME280;71313;43.514;1.500;2024-02-21T09:18:56;100692.22;;;10.91;63.49
81865;BME280;71313;43.514;1.500;2024-02-21T09:21:22;100686.38;;;11.14;63.31
81865;BME280;71313;43.514;1.500;2024-02-21T09:23:48;100683.34;;;11.50;62.41
81865;BME280;71313;43.514;1.500;2024-02-21T09:26:13;100675.31;;;11.94;62.84
81865;BME280;71313;43.514;1.500;2024-02-21T09:28:41;100672.69;;;12.50;62.10
81865;BME280;71313;43.514;1.500;2024-02-21T09:31:06;100662.03;;;13.16;62.01
81865;BME280;71313;43.514;1.500;2024-02-21T09:33:32;100656.97;;;13.89;60.59
81865;BME280;71313;43.514;1.500;2024-02-21T09:35:57;100657.72;;;14.79;59.19
81865;BME280;71313;43.514;1.500;2024-02-21T09:38:23;100664.41;;;15.69;57.69
81865;BME280;71313;43.514;1.500;2024-02-21T09:40:59;100653.03;;;16.54;55.55
81865;BME280;71313;43.514;1.500;2024-02-21T09:43:26;100652.91;;;17.22;53.58
81865;BME280;71313;43.514;1.500;2024-02-21T09:45:54;100641.34;;;17.40;53.12
81865;BME280;71313;43.514;1.500;2024-02-21T09:51:02;100642.09;;;17.63;51.82
81865;BME280;71313;43.514;1.500;2024-02-21T09:53:28;100640.13;;;18.07;51.80
81865;BME280;71313;43.514;1.500;2024-02-21T09:55:54;100628.84;;;18.52;51.29
81865;BME280;71313;43.514;1.500;2024-02-21T09:58:20;100628.72;;;19.12;49.27
81865;BME280;71313;43.514;1.500;2024-02-21T10:00:46;100636.19;;;19.68;47.75
81865;BME280;71313;43.514;1.500;2024-02-21T10:03:12;100629.41;;;20.29;46.79
81865;BME280;71313;43.514;1.500;2024-02-21T10:05:38;100626.72;;;21.01;46.34
81865;BME280;71313;43.514;1.500;2024-02-21T10:08:04;100636.47;;;21.75;44.62
81865;BME280;71313;43.514;1.500;2024-02-21T10:10:43;100630.13;;;22.18;42.24
81865;BME280;71313;43.514;1.500;2024-02-21T10:13:10;100631.56;;;22.30;42.21
81865;BME280;71313;43.514;1.500;2024-02-21T10:15:36;100625.13;;;22.40;41.99
81865;BME280;71313;43.514;1.500;2024-02-21T10:18:02;100625.00;;;22.49;41.43
81865;BME280;71313;43.514;1.500;2024-02-21T10:20:32;100630.00;;;22.62;39.82
81865;BME280;71313;43.514;1.500;2024-02-21T10:23:04;100625.00;;;22.91;39.93
81865;BME280;71313;43.514;1.500;2024-02-21T10:25:36;100632.44;;;22.73;38.50
81865;BME280;71313;43.514;1.500;2024-02-21T10:28:08;100642.38;;;22.74;40.01
81865;BME280;71313;43.514;1.500;2024-02-21T10:30:33;100647.91;;;22.82;38.62
81865;BME280;71313;43.514;1.500;2024-02-21T10:32:59;100640.47;;;23.17;38.38
81865;BME280;71313;43.514;1.500;2024-02-21T10:35:31;100650.78;;;23.88;37.71
81865;BME280;71313;43.514;1.500;2024-02-21T10:37:57;100648.03;;;23.96;36.97
81865;BME280;71313;43.514;1.500;2024-02-21T10:40:29;100644.72;;;24.17;37.01
81865;BME280;71313;43.514;1.500;2024-02-21T10:42:59;100647.75;;;24.54;36.01
81865;BME280;71313;43.514;1.500;2024-02-21T10:45:35;100641.69;;;24.67;35.66
81865;BME280;71313;43.514;1.500;2024-02-21T10:48:08;100643.47;;;24.52;35.28
81865;BME280;71313;43.514;1.500;2024-02-21T10:51:25;100636.84;;;24.22;35.38
81865;BME280;71313;43.514;1.500;2024-02-21T10:53:50;100636.75;;;23.58;36.02
81865;BME280;71313;43.514;1.500;2024-02-21T10:58:46;100619.31;;;22.43;37.84
81865;BME280;71313;43.514;1.500;2024-02-21T11:01:13;100616.66;;;21.99;37.71
81865;BME280;71313;43.514;1.500;2024-02-21T11:03:41;100611.91;;;21.57;38.72
81865;BME280;71313;43.514;1.500;2024-02-21T11:06:10;100616.78;;;21.28;38.03
81865;BME280;71313;43.514;1.500;2024-02-21T11:08:37;100605.91;;;21.00;37.84
81865;BME280;71313;43.514;1.500;2024-02-21T11:11:04;100608.00;;;20.71;37.92
81865;BME280;71313;43.514;1.500;2024-02-21T11:13:37;100604.69;;;20.50;38.42
81865;BME280;71313;43.514;1.500;2024-02-21T11:16:09;100606.22;;;20.15;38.17
81865;BME280;71313;43.514;1.500;2024-02-21T11:18:35;100593.06;;;20.10;37.98
81865;BME280;71313;43.514;1.500;2024-02-21T11:21:00;100591.50;;;20.08;38.78
81865;BME280;71313;43.514;1.500;2024-02-21T11:23:26;100586.75;;;20.10;39.31
81865;BME280;71313;43.514;1.500;2024-02-21T11:25:52;100591.19;;;20.11;39.32
81865;BME280;71313;43.514;1.500;2024-02-21T11:28:25;100589.06;;;20.05;38.96
81865;BME280;71313;43.514;1.500;2024-02-21T11:30:50;100588.94;;;19.97;39.21
81865;BME280;71313;43.514;1.500;2024-02-21T11:33:16;100583.25;;;19.81;38.89
81865;BME280;71313;43.514;1.500;2024-02-21T11:35:42;100578.31;;;19.57;38.45
81865;BME280;71313;43.514;1.500;2024-02-21T11:38:09;100577.88;;;19.42;38.76
81865;BME280;71313;43.514;1.500;2024-02-21T11:40:35;100574.00;;;19.35;38.69
81865;BME280;71313;43.514;1.500;2024-02-21T11:43:00;100584.03;;;19.44;39.07
81865;BME280;71313;43.514;1.500;2024-02-21T11:45:26;100572.84;;;19.37;38.33
81865;BME280;71313;43.514;1.500;2024-02-21T11:47:52;100577.88;;;19.42;38.70
81865;BME280;71313;43.514;1.500;2024-02-21T11:50:18;100568.84;;;19.51;38.49
81865;BME280;71313;43.514;1.500;2024-02-21T11:52:44;100570.41;;;19.63;37.59
81865;BME280;71313;43.514;1.500;2024-02-21T11:55:10;100561.91;;;19.86;37.33
81865;BME280;71313;43.514;1.500;2024-02-21T11:57:37;100564.25;;;20.45;37.60
81865;BME280;71313;43.514;1.500;2024-02-21T12:00:15;100555.16;;;21.43;35.81
81865;BME280;71313;43.514;1.500;2024-02-21T12:02:42;100553.22;;;22.13;35.59
81865;BME280;71313;43.514;1.500;2024-02-21T12:05:08;100546.56;;;22.58;34.73
81865;BME280;71313;43.514;1.500;2024-02-21T12:07:33;100545.16;;;23.28;33.72
81865;BME280;71313;43.514;1.500;2024-02-21T12:10:01;100547.13;;;23.91;32.91
81865;BME280;71313;43.514;1.500;2024-02-21T12:12:26;100546.22;;;24.07;32.42
81865;BME280;71313;43.514;1.500;2024-02-21T12:14:56;100545.94;;;23.86;31.48
81865;BME280;71313;43.514;1.500;2024-02-21T12:17:23;100534.28;;;23.84;31.69
81865;BME280;71313;43.514;1.500;2024-02-21T12:19:50;100528.66;;;23.77;31.14
81865;BME280;71313;43.514;1.500;2024-02-21T12:22:18;100528.16;;;23.74;31.10
81865;BME280;71313;43.514;1.500;2024-02-21T12:24:44;100510.69;;;23.67;30.89
81865;BME280;71313;43.514;1.500;2024-02-21T12:27:13;100510.63;;;23.91;31.33
81865;BME280;71313;43.514;1.500;2024-02-21T12:29:39;100508.22;;;23.96;30.92
81865;BME280;71313;43.514;1.500;2024-02-21T12:32:05;100513.72;;;23.88;30.66
81865;BME280;71313;43.514;1.500;2024-02-21T12:34:30;100513.91;;;23.86;31.25
81865;BME280;71313;43.514;1.500;2024-02-21T12:36:59;100516.69;;;23.70;31.28
81865;BME280;71313;43.514;1.500;2024-02-21T12:39:24;100508.31;;;23.55;31.06
81865;BME280;71313;43.514;1.500;2024-02-21T12:41:52;100502.19;;;23.37;30.92
81865;BME280;71313;43.514;1.500;2024-02-21T12:44:19;100504.59;;;23.24;31.93
81865;BME280;71313;43.514;1.500;2024-02-21T12:46:45;100492.28;;;23.12;31.82
81865;BME280;71313;43.514;1.500;2024-02-21T12:49:10;100485.09;;;23.19;32.68
81865;BME280;71313;43.514;1.500;2024-02-21T12:51:36;100479.09;;;22.99;31.68
81865;BME280;71313;43.514;1.500;2024-02-21T12:54:03;100473.47;;;22.92;31.66
81865;BME280;71313;43.514;1.500;2024-02-21T12:56:28;100472.25;;;22.95;32.50
81865;BME280;71313;43.514;1.500;2024-02-21T12:58:55;100472.09;;;22.88;32.03